sensor_id;sensor_type;location;lat;lon;timestamp;P1;durP1;ratioP1;P2;durP2;ratioP2
19877;SDS011;10101;52.204;9.910;2023-03-23T00:00:55;3.33;;;1.07;;
19877;SDS011;10101;52.204;9.910;2023-03-23T00:03:21;0.97;;;0.87;;
19877;SDS011;10101;52.204;9.910;2023-03-23T00:05:50;1.73;;;0.90;;
19877;SDS011;10101;52.204;9.910;2023-03-23T00:08:18;1.80;;;1.10;;
19877;SDS011;10101;52.204;9.910;2023-03-23T00:10:48;2.43;;;1.10;;
19877;SDS011;10101;52.204;9.910;2023-03-23T00:13:17;2.23;;;1.10;;
19877;SDS011;10101;52.204;9.910;2023-03-23T00:15:45;3.60;;;1.23;;
19877;SDS011;10101;52.204;9.910;2023-03-23T00:18:13;0.97;;;0.67;;
19877;SDS011;10101;52.204;9.910;2023-03-23T00:20:48;4.10;;;1.40;;
19877;SDS011;10101;52.204;9.910;2023-03-23T00:23:15;1.63;;;1.10;;
19877;SDS011;10101;52.204;9.910;2023-03-23T00:25:44;2.00;;;1.10;;
19877;SDS011;10101;52.204;9.910;2023-03-23T00:28:14;1.43;;;1.00;;
19877;SDS011;10101;52.204;9.910;2023-03-23T00:30:41;4.40;;;1.43;;
19877;SDS011;10101;52.204;9.910;2023-03-23T00:33:10;2.17;;;1.10;;
19877;SDS011;10101;52.204;9.910;2023-03-23T00:35:38;2.10;;;1.13;;
19877;SDS011;10101;52.204;9.910;2023-03-23T00:38:06;2.20;;;1.60;;
19877;SDS011;10101;52.204;9.910;2023-03-23T00:40:33;1.37;;;1.13;;
19877;SDS011;10101;52.204;9.910;2023-03-23T00:43:01;3.77;;;1.00;;
19877;SDS011;10101;52.204;9.910;2023-03-23T00:45:30;1.70;;;1.07;;
19877;SDS011;10101;52.204;9.910;2023-03-23T00:47:59;2.33;;;0.90;;
19877;SDS011;10101;52.204;9.910;2023-03-23T00:50:27;2.10;;;1.23;;
19877;SDS011;10101;52.204;9.910;2023-03-23T00:52:54;1.10;;;0.90;;
19877;SDS011;10101;52.204;9.910;2023-03-23T00:55:21;2.13;;;1.00;;
19877;SDS011;10101;52.204;9.910;2023-03-23T00:57:48;1.20;;;0.93;;
19877;SDS011;10101;52.204;9.910;2023-03-23T01:00:16;2.33;;;1.33;;
19877;SDS011;10101;52.204;9.910;2023-03-23T01:02:45;1.60;;;1.07;;
19877;SDS011;10101;52.204;9.910;2023-03-23T01:05:12;4.00;;;1.37;;
19877;SDS011;10101;52.204;9.910;2023-03-23T01:07:39;1.40;;;1.10;;
19877;SDS011;10101;52.204;9.910;2023-03-23T01:10:06;2.87;;;1.40;;
19877;SDS011;10101;52.204;9.910;2023-03-23T01:12:34;2.67;;;1.43;;
19877;SDS011;10101;52.204;9.910;2023-03-23T01:15:01;6.57;;;1.33;;
19877;SDS011;10101;52.204;9.910;2023-03-23T01:17:27;1.73;;;1.03;;
19877;SDS011;10101;52.204;9.910;2023-03-23T01:19:55;4.33;;;1.30;;
19877;SDS011;10101;52.204;9.910;2023-03-23T01:22:22;2.30;;;1.17;;
19877;SDS011;10101;52.204;9.910;2023-03-23T01:24:49;2.10;;;1.10;;
19877;SDS011;10101;52.204;9.910;2023-03-23T01:27:16;1.67;;;1.17;;
19877;SDS011;10101;52.204;9.910;2023-03-23T01:29:43;3.87;;;1.30;;
19877;SDS011;10101;52.204;9.910;2023-03-23T01:32:10;2.80;;;1.33;;
19877;SDS011;10101;52.204;9.910;2023-03-23T01:34:36;1.33;;;1.10;;
19877;SDS011;10101;52.204;9.910;2023-03-23T01:37:04;3.03;;;1.33;;
19877;SDS011;10101;52.204;9.910;2023-03-23T01:39:31;1.67;;;1.33;;
19877;SDS011;10101;52.204;9.910;2023-03-23T01:41:58;1.37;;;1.03;;
19877;SDS011;10101;52.204;9.910;2023-03-23T01:47:54;2.63;;;1.30;;
19877;SDS011;10101;52.204;9.910;2023-03-23T01:50:25;2.30;;;0.97;;
19877;SDS011;10101;52.204;9.910;2023-03-23T01:52:55;3.90;;;1.20;;
19877;SDS011;10101;52.204;9.910;2023-03-23T01:55:24;3.10;;;1.20;;
19877;SDS011;10101;52.204;9.910;2023-03-23T01:57:53;1.33;;;1.10;;
19877;SDS011;10101;52.204;9.910;2023-03-23T02:00:21;2.63;;;1.17;;
19877;SDS011;10101;52.204;9.910;2023-03-23T02:02:50;2.10;;;1.10;;
19877;SDS011;10101;52.204;9.910;2023-03-23T02:05:19;3.60;;;1.37;;
19877;SDS011;10101;52.204;9.910;2023-03-23T02:07:49;2.33;;;1.00;;
19877;SDS011;10101;52.204;9.910;2023-03-23T02:10:18;1.50;;;1.10;;
19877;SDS011;10101;52.204;9.910;2023-03-23T02:12:45;2.50;;;1.10;;
19877;SDS011;10101;52.204;9.910;2023-03-23T02:15:12;2.70;;;1.10;;
19877;SDS011;10101;52.204;9.910;2023-03-23T02:17:41;2.23;;;1.30;;
19877;SDS011;10101;52.204;9.910;2023-03-23T02:20:24;2.20;;;1.20;;
19877;SDS011;10101;52.204;9.910;2023-03-23T02:26:26;1.57;;;1.00;;
19877;SDS011;10101;52.204;9.910;2023-03-23T02:29:09;2.93;;;1.10;;
19877;SDS011;10101;52.204;9.910;2023-03-23T02:32:04;1.70;;;1.13;;
19877;SDS011;10101;52.204;9.910;2023-03-23T02:34:42;1.30;;;1.10;;
19877;SDS011;10101;52.204;9.910;2023-03-23T02:37:13;4.30;;;1.40;;
19877;SDS011;10101;52.204;9.910;2023-03-23T02:39:45;1.57;;;1.07;;
19877;SDS011;10101;52.204;9.910;2023-03-23T02:42:17;3.00;;;1.17;;
19877;SDS011;10101;52.204;9.910;2023-03-23T02:44:48;1.40;;;1.07;;
19877;SDS011;10101;52.204;9.910;2023-03-23T02:47:16;2.77;;;1.40;;
19877;SDS011;10101;52.204;9.910;2023-03-23T02:49:49;1.20;;;1.10;;
19877;SDS011;10101;52.204;9.910;2023-03-23T02:52:19;4.77;;;1.27;;
19877;SDS011;10101;52.204;9.910;2023-03-23T02:54:48;2.53;;;1.20;;
19877;SDS011;10101;52.204;9.910;2023-03-23T02:57:17;2.87;;;1.30;;
19877;SDS011;10101;52.204;9.910;2023-03-23T02:59:45;2.03;;;1.30;;
19877;SDS011;10101;52.204;9.910;2023-03-23T03:02:12;4.80;;;1.30;;
19877;SDS011;10101;52.204;9.910;2023-03-23T03:04:44;1.77;;;1.20;;
19877;SDS011;10101;52.204;9.910;2023-03-23T03:07:30;2.27;;;1.30;;
19877;SDS011;10101;52.204;9.910;2023-03-23T03:10:04;1.97;;;1.23;;
19877;SDS011;10101;52.204;9.910;2023-03-23T03:12:41;2.63;;;1.20;;
19877;SDS011;10101;52.204;9.910;2023-03-23T03:15:13;1.20;;;1.10;;
19877;SDS011;10101;52.204;9.910;2023-03-23T03:17:51;1.77;;;1.10;;
19877;SDS011;10101;52.204;9.910;2023-03-23T03:20:25;3.97;;;1.20;;
19877;SDS011;10101;52.204;9.910;2023-03-23T03:22:54;3.70;;;1.30;;
19877;SDS011;10101;52.204;9.910;2023-03-23T03:25:22;1.80;;;1.17;;
19877;SDS011;10101;52.204;9.910;2023-03-23T03:27:52;5.23;;;1.50;;
19877;SDS011;10101;52.204;9.910;2023-03-23T03:30:21;2.03;;;1.13;;
19877;SDS011;10101;52.204;9.910;2023-03-23T03:32:52;1.97;;;1.10;;
19877;SDS011;10101;52.204;9.910;2023-03-23T03:35:20;3.13;;;1.50;;
19877;SDS011;10101;52.204;9.910;2023-03-23T03:37:49;2.80;;;1.50;;
19877;SDS011;10101;52.204;9.910;2023-03-23T03:40:18;2.67;;;1.37;;
19877;SDS011;10101;52.204;9.910;2023-03-23T03:42:46;1.73;;;1.27;;
19877;SDS011;10101;52.204;9.910;2023-03-23T03:45:15;2.83;;;1.40;;
19877;SDS011;10101;52.204;9.910;2023-03-23T03:47:43;3.33;;;1.40;;
19877;SDS011;10101;52.204;9.910;2023-03-23T03:50:11;2.27;;;1.40;;
19877;SDS011;10101;52.204;9.910;2023-03-23T03:52:38;4.37;;;1.30;;
19877;SDS011;10101;52.204;9.910;2023-03-23T03:55:07;1.77;;;1.00;;
19877;SDS011;10101;52.204;9.910;2023-03-23T03:57:35;4.43;;;1.53;;
19877;SDS011;10101;52.204;9.910;2023-03-23T04:00:02;2.57;;;1.33;;
19877;SDS011;10101;52.204;9.910;2023-03-23T04:02:39;1.77;;;1.30;;
19877;SDS011;10101;52.204;9.910;2023-03-23T04:05:07;2.80;;;1.30;;
19877;SDS011;10101;52.204;9.910;2023-03-23T04:07:35;1.57;;;1.20;;
19877;SDS011;10101;52.204;9.910;2023-03-23T04:10:04;2.93;;;1.50;;
19877;SDS011;10101;52.204;9.910;2023-03-23T04:12:34;1.47;;;1.17;;
19877;SDS011;10101;52.204;9.910;2023-03-23T04:15:01;3.37;;;1.50;;
19877;SDS011;10101;52.204;9.910;2023-03-23T04:17:29;2.87;;;1.20;;
19877;SDS011;10101;52.204;9.910;2023-03-23T04:19:56;1.63;;;1.20;;
19877;SDS011;10101;52.204;9.910;2023-03-23T04:22:24;2.93;;;1.43;;
19877;SDS011;10101;52.204;9.910;2023-03-23T04:24:55;3.37;;;1.40;;
19877;SDS011;10101;52.204;9.910;2023-03-23T04:27:25;2.70;;;1.40;;
19877;SDS011;10101;52.204;9.910;2023-03-23T04:29:53;1.63;;;1.10;;
19877;SDS011;10101;52.204;9.910;2023-03-23T04:32:21;1.70;;;1.20;;
19877;SDS011;10101;52.204;9.910;2023-03-23T04:34:49;2.30;;;1.20;;
19877;SDS011;10101;52.204;9.910;2023-03-23T04:37:16;1.90;;;1.30;;
19877;SDS011;10101;52.204;9.910;2023-03-23T04:39:43;2.30;;;1.20;;
19877;SDS011;10101;52.204;9.910;2023-03-23T04:42:10;2.00;;;1.30;;
19877;SDS011;10101;52.204;9.910;2023-03-23T04:44:40;2.17;;;1.30;;
19877;SDS011;10101;52.204;9.910;2023-03-23T04:47:08;1.43;;;1.20;;
19877;SDS011;10101;52.204;9.910;2023-03-23T04:49:35;2.70;;;1.20;;
19877;SDS011;10101;52.204;9.910;2023-03-23T04:52:02;2.30;;;1.00;;
19877;SDS011;10101;52.204;9.910;2023-03-23T04:54:29;2.97;;;1.17;;
19877;SDS011;10101;52.204;9.910;2023-03-23T04:56:55;1.50;;;1.10;;
19877;SDS011;10101;52.204;9.910;2023-03-23T04:59:23;1.50;;;1.20;;
19877;SDS011;10101;52.204;9.910;2023-03-23T05:01:54;2.57;;;1.30;;
19877;SDS011;10101;52.204;9.910;2023-03-23T05:04:20;1.83;;;1.30;;
19877;SDS011;10101;52.204;9.910;2023-03-23T05:06:50;4.77;;;1.20;;
19877;SDS011;10101;52.204;9.910;2023-03-23T05:09:17;1.60;;;1.20;;
19877;SDS011;10101;52.204;9.910;2023-03-23T05:11:44;2.13;;;1.17;;
19877;SDS011;10101;52.204;9.910;2023-03-23T05:14:12;2.20;;;1.20;;
19877;SDS011;10101;52.204;9.910;2023-03-23T05:16:38;1.17;;;0.80;;
19877;SDS011;10101;52.204;9.910;2023-03-23T05:19:06;2.63;;;1.10;;
19877;SDS011;10101;52.204;9.910;2023-03-23T05:21:33;1.63;;;1.13;;
19877;SDS011;10101;52.204;9.910;2023-03-23T05:24:00;1.37;;;1.00;;
19877;SDS011;10101;52.204;9.910;2023-03-23T05:26:27;0.90;;;0.80;;
19877;SDS011;10101;52.204;9.910;2023-03-23T05:28:54;2.13;;;0.97;;
19877;SDS011;10101;52.204;9.910;2023-03-23T05:31:22;1.57;;;0.90;;
19877;SDS011;10101;52.204;9.910;2023-03-23T05:33:49;2.00;;;0.90;;
19877;SDS011;10101;52.204;9.910;2023-03-23T05:36:17;3.60;;;0.90;;
19877;SDS011;10101;52.204;9.910;2023-03-23T05:38:44;1.00;;;0.70;;
19877;SDS011;10101;52.204;9.910;2023-03-23T05:41:12;0.90;;;0.80;;
19877;SDS011;10101;52.204;9.910;2023-03-23T05:43:39;2.80;;;0.90;;
19877;SDS011;10101;52.204;9.910;2023-03-23T05:46:06;0.60;;;0.60;;
19877;SDS011;10101;52.204;9.910;2023-03-23T05:48:34;1.13;;;0.80;;
19877;SDS011;10101;52.204;9.910;2023-03-23T05:51:01;0.70;;;0.70;;
19877;SDS011;10101;52.204;9.910;2023-03-23T05:53:29;1.90;;;0.80;;
19877;SDS011;10101;52.204;9.910;2023-03-23T05:55:58;1.07;;;0.80;;
19877;SDS011;10101;52.204;9.910;2023-03-23T05:58:25;0.80;;;0.60;;
19877;SDS011;10101;52.204;9.910;2023-03-23T06:00:52;1.50;;;0.70;;
19877;SDS011;10101;52.204;9.910;2023-03-23T06:03:20;1.40;;;0.80;;
19877;SDS011;10101;52.204;9.910;2023-03-23T06:05:47;0.87;;;0.70;;
19877;SDS011;10101;52.204;9.910;2023-03-23T06:08:15;2.10;;;0.67;;
19877;SDS011;10101;52.204;9.910;2023-03-23T06:10:43;0.77;;;0.77;;
19877;SDS011;10101;52.204;9.910;2023-03-23T06:13:10;1.03;;;0.80;;
19877;SDS011;10101;52.204;9.910;2023-03-23T06:15:36;1.27;;;0.80;;
19877;SDS011;10101;52.204;9.910;2023-03-23T06:18:03;1.23;;;0.93;;
19877;SDS011;10101;52.204;9.910;2023-03-23T06:20:30;0.90;;;0.60;;
19877;SDS011;10101;52.204;9.910;2023-03-23T06:22:57;1.73;;;0.80;;
19877;SDS011;10101;52.204;9.910;2023-03-23T06:25:24;1.30;;;0.93;;
19877;SDS011;10101;52.204;9.910;2023-03-23T06:27:52;1.13;;;0.90;;
19877;SDS011;10101;52.204;9.910;2023-03-23T06:30:20;0.70;;;0.70;;
19877;SDS011;10101;52.204;9.910;2023-03-23T06:32:47;1.40;;;0.80;;
19877;SDS011;10101;52.204;9.910;2023-03-23T06:35:13;2.10;;;1.00;;
19877;SDS011;10101;52.204;9.910;2023-03-23T06:37:41;0.67;;;0.67;;
19877;SDS011;10101;52.204;9.910;2023-03-23T06:40:08;1.10;;;0.80;;
19877;SDS011;10101;52.204;9.910;2023-03-23T06:42:35;4.30;;;1.00;;
19877;SDS011;10101;52.204;9.910;2023-03-23T06:45:04;0.90;;;0.60;;
19877;SDS011;10101;52.204;9.910;2023-03-23T06:47:32;1.17;;;0.60;;
19877;SDS011;10101;52.204;9.910;2023-03-23T06:49:59;2.07;;;0.80;;
19877;SDS011;10101;52.204;9.910;2023-03-23T06:52:26;1.33;;;0.80;;
19877;SDS011;10101;52.204;9.910;2023-03-23T06:54:53;1.53;;;0.90;;
19877;SDS011;10101;52.204;9.910;2023-03-23T06:57:20;1.00;;;0.87;;
19877;SDS011;10101;52.204;9.910;2023-03-23T06:59:47;0.67;;;0.67;;
19877;SDS011;10101;52.204;9.910;2023-03-23T07:02:15;0.70;;;0.70;;
19877;SDS011;10101;52.204;9.910;2023-03-23T07:04:42;1.73;;;0.80;;
19877;SDS011;10101;52.204;9.910;2023-03-23T07:07:09;1.67;;;0.80;;
19877;SDS011;10101;52.204;9.910;2023-03-23T07:09:39;1.20;;;0.70;;
19877;SDS011;10101;52.204;9.910;2023-03-23T07:12:06;1.17;;;0.83;;
19877;SDS011;10101;52.204;9.910;2023-03-23T07:14:33;2.83;;;1.10;;
19877;SDS011;10101;52.204;9.910;2023-03-23T07:17:00;1.60;;;0.80;;
19877;SDS011;10101;52.204;9.910;2023-03-23T07:19:29;1.17;;;0.80;;
19877;SDS011;10101;52.204;9.910;2023-03-23T07:21:56;1.40;;;0.87;;
19877;SDS011;10101;52.204;9.910;2023-03-23T07:24:23;1.47;;;0.90;;
19877;SDS011;10101;52.204;9.910;2023-03-23T07:26:50;2.27;;;1.00;;
19877;SDS011;10101;52.204;9.910;2023-03-23T07:29:17;1.40;;;0.83;;
19877;SDS011;10101;52.204;9.910;2023-03-23T07:31:44;2.07;;;0.90;;
19877;SDS011;10101;52.204;9.910;2023-03-23T07:34:11;1.23;;;0.80;;
19877;SDS011;10101;52.204;9.910;2023-03-23T07:36:39;1.27;;;1.00;;
19877;SDS011;10101;52.204;9.910;2023-03-23T07:39:06;0.87;;;0.80;;
19877;SDS011;10101;52.204;9.910;2023-03-23T07:41:32;1.27;;;0.90;;
19877;SDS011;10101;52.204;9.910;2023-03-23T07:44:00;1.00;;;0.97;;
19877;SDS011;10101;52.204;9.910;2023-03-23T07:46:27;1.53;;;0.80;;
19877;SDS011;10101;52.204;9.910;2023-03-23T07:48:54;2.77;;;1.00;;
19877;SDS011;10101;52.204;9.910;2023-03-23T07:51:21;2.60;;;1.00;;
19877;SDS011;10101;52.204;9.910;2023-03-23T07:53:49;1.47;;;1.00;;
19877;SDS011;10101;52.204;9.910;2023-03-23T07:56:16;0.83;;;0.70;;
19877;SDS011;10101;52.204;9.910;2023-03-23T07:58:44;2.30;;;1.00;;
19877;SDS011;10101;52.204;9.910;2023-03-23T08:01:11;1.53;;;1.20;;
19877;SDS011;10101;52.204;9.910;2023-03-23T08:03:38;1.97;;;1.07;;
19877;SDS011;10101;52.204;9.910;2023-03-23T08:06:06;1.00;;;0.90;;
19877;SDS011;10101;52.204;9.910;2023-03-23T08:08:33;1.97;;;0.80;;
19877;SDS011;10101;52.204;9.910;2023-03-23T08:11:01;1.73;;;1.17;;
19877;SDS011;10101;52.204;9.910;2023-03-23T08:13:29;1.00;;;0.80;;
19877;SDS011;10101;52.204;9.910;2023-03-23T08:15:55;0.93;;;0.93;;
19877;SDS011;10101;52.204;9.910;2023-03-23T08:18:22;1.23;;;0.80;;
19877;SDS011;10101;52.204;9.910;2023-03-23T08:20:49;1.87;;;0.93;;
19877;SDS011;10101;52.204;9.910;2023-03-23T08:23:18;1.50;;;1.00;;
19877;SDS011;10101;52.204;9.910;2023-03-23T08:25:45;1.90;;;1.07;;
19877;SDS011;10101;52.204;9.910;2023-03-23T08:28:13;2.77;;;1.20;;
19877;SDS011;10101;52.204;9.910;2023-03-23T08:30:40;3.97;;;1.30;;
19877;SDS011;10101;52.204;9.910;2023-03-23T08:33:07;3.37;;;1.10;;
19877;SDS011;10101;52.204;9.910;2023-03-23T08:35:35;3.60;;;1.30;;
19877;SDS011;10101;52.204;9.910;2023-03-23T08:38:02;3.87;;;1.30;;
19877;SDS011;10101;52.204;9.910;2023-03-23T08:40:29;3.10;;;1.10;;
19877;SDS011;10101;52.204;9.910;2023-03-23T08:42:57;1.60;;;1.07;;
19877;SDS011;10101;52.204;9.910;2023-03-23T08:45:25;2.43;;;1.23;;
19877;SDS011;10101;52.204;9.910;2023-03-23T08:47:53;1.80;;;1.10;;
19877;SDS011;10101;52.204;9.910;2023-03-23T08:50:21;2.37;;;1.20;;
19877;SDS011;10101;52.204;9.910;2023-03-23T08:52:50;2.47;;;1.00;;
19877;SDS011;10101;52.204;9.910;2023-03-23T08:55:18;1.80;;;0.90;;
19877;SDS011;10101;52.204;9.910;2023-03-23T08:57:44;2.67;;;1.13;;
19877;SDS011;10101;52.204;9.910;2023-03-23T09:00:13;3.77;;;1.37;;
19877;SDS011;10101;52.204;9.910;2023-03-23T09:02:44;4.60;;;1.33;;
19877;SDS011;10101;52.204;9.910;2023-03-23T09:05:13;3.43;;;1.20;;
19877;SDS011;10101;52.204;9.910;2023-03-23T09:07:41;4.07;;;1.27;;
19877;SDS011;10101;52.204;9.910;2023-03-23T09:10:10;3.00;;;1.10;;
19877;SDS011;10101;52.204;9.910;2023-03-23T09:12:38;3.27;;;1.00;;
19877;SDS011;10101;52.204;9.910;2023-03-23T09:15:06;4.93;;;1.20;;
19877;SDS011;10101;52.204;9.910;2023-03-23T09:17:34;2.13;;;1.20;;
19877;SDS011;10101;52.204;9.910;2023-03-23T09:20:04;3.03;;;1.10;;
19877;SDS011;10101;52.204;9.910;2023-03-23T09:22:35;2.63;;;1.07;;
19877;SDS011;10101;52.204;9.910;2023-03-23T09:25:03;4.73;;;1.30;;
19877;SDS011;10101;52.204;9.910;2023-03-23T09:27:31;3.93;;;1.40;;
19877;SDS011;10101;52.204;9.910;2023-03-23T09:29:57;3.77;;;1.20;;
19877;SDS011;10101;52.204;9.910;2023-03-23T09:32:25;3.93;;;1.20;;
19877;SDS011;10101;52.204;9.910;2023-03-23T09:34:53;2.67;;;1.23;;
19877;SDS011;10101;52.204;9.910;2023-03-23T09:37:22;2.60;;;1.20;;
19877;SDS011;10101;52.204;9.910;2023-03-23T09:39:49;2.90;;;1.17;;
19877;SDS011;10101;52.204;9.910;2023-03-23T09:42:24;2.27;;;1.10;;
19877;SDS011;10101;52.204;9.910;2023-03-23T09:45:07;4.73;;;1.07;;
19877;SDS011;10101;52.204;9.910;2023-03-23T09:47:43;2.77;;;1.40;;
19877;SDS011;10101;52.204;9.910;2023-03-23T09:50:17;7.00;;;1.40;;
19877;SDS011;10101;52.204;9.910;2023-03-23T09:52:56;6.73;;;1.40;;
19877;SDS011;10101;52.204;9.910;2023-03-23T09:55:26;5.83;;;1.47;;
19877;SDS011;10101;52.204;9.910;2023-03-23T09:57:54;4.83;;;1.37;;
19877;SDS011;10101;52.204;9.910;2023-03-23T10:00:25;2.10;;;1.03;;
19877;SDS011;10101;52.204;9.910;2023-03-23T10:02:59;3.10;;;1.07;;
19877;SDS011;10101;52.204;9.910;2023-03-23T10:05:31;3.67;;;1.10;;
19877;SDS011;10101;52.204;9.910;2023-03-23T10:08:05;3.47;;;1.87;;
19877;SDS011;10101;52.204;9.910;2023-03-23T10:10:40;4.87;;;1.40;;
19877;SDS011;10101;52.204;9.910;2023-03-23T10:13:15;3.80;;;1.40;;
19877;SDS011;10101;52.204;9.910;2023-03-23T10:15:50;4.93;;;1.30;;
19877;SDS011;10101;52.204;9.910;2023-03-23T10:18:20;1.43;;;1.10;;
19877;SDS011;10101;52.204;9.910;2023-03-23T10:20:53;2.67;;;1.10;;
19877;SDS011;10101;52.204;9.910;2023-03-23T10:23:40;5.80;;;1.20;;
19877;SDS011;10101;52.204;9.910;2023-03-23T10:26:12;4.87;;;1.50;;
19877;SDS011;10101;52.204;9.910;2023-03-23T10:28:48;5.20;;;1.40;;
19877;SDS011;10101;52.204;9.910;2023-03-23T10:31:19;2.83;;;1.30;;
19877;SDS011;10101;52.204;9.910;2023-03-23T10:33:49;4.60;;;1.17;;
19877;SDS011;10101;52.204;9.910;2023-03-23T10:36:19;3.03;;;1.03;;
19877;SDS011;10101;52.204;9.910;2023-03-23T10:38:52;2.67;;;1.30;;
19877;SDS011;10101;52.204;9.910;2023-03-23T10:41:23;3.23;;;1.30;;
19877;SDS011;10101;52.204;9.910;2023-03-23T10:43:50;6.57;;;1.37;;
19877;SDS011;10101;52.204;9.910;2023-03-23T10:46:22;3.70;;;1.20;;
19877;SDS011;10101;52.204;9.910;2023-03-23T10:48:56;4.43;;;1.03;;
19877;SDS011;10101;52.204;9.910;2023-03-23T10:51:27;4.90;;;1.50;;
19877;SDS011;10101;52.204;9.910;2023-03-23T10:54:00;5.87;;;1.60;;
19877;SDS011;10101;52.204;9.910;2023-03-23T10:56:34;6.00;;;1.47;;
19877;SDS011;10101;52.204;9.910;2023-03-23T10:59:11;3.40;;;1.07;;
19877;SDS011;10101;52.204;9.910;2023-03-23T11:01:41;3.83;;;1.33;;
19877;SDS011;10101;52.204;9.910;2023-03-23T11:04:11;7.83;;;1.40;;
19877;SDS011;10101;52.204;9.910;2023-03-23T11:06:42;3.63;;;1.27;;
19877;SDS011;10101;52.204;9.910;2023-03-23T11:09:13;4.10;;;1.27;;
19877;SDS011;10101;52.204;9.910;2023-03-23T11:11:43;4.60;;;1.30;;
19877;SDS011;10101;52.204;9.910;2023-03-23T11:14:15;3.53;;;1.20;;
19877;SDS011;10101;52.204;9.910;2023-03-23T11:16:45;2.63;;;1.13;;
19877;SDS011;10101;52.204;9.910;2023-03-23T11:19:20;3.47;;;1.17;;
19877;SDS011;10101;52.204;9.910;2023-03-23T11:21:49;3.87;;;1.27;;
19877;SDS011;10101;52.204;9.910;2023-03-23T11:24:20;3.93;;;1.10;;
19877;SDS011;10101;52.204;9.910;2023-03-23T11:26:48;3.87;;;1.50;;
19877;SDS011;10101;52.204;9.910;2023-03-23T11:29:18;1.83;;;0.93;;
19877;SDS011;10101;52.204;9.910;2023-03-23T11:31:48;3.70;;;1.40;;
19877;SDS011;10101;52.204;9.910;2023-03-23T11:34:18;6.07;;;1.50;;
19877;SDS011;10101;52.204;9.910;2023-03-23T11:36:47;4.80;;;1.20;;
19877;SDS011;10101;52.204;9.910;2023-03-23T11:39:24;2.73;;;1.10;;
19877;SDS011;10101;52.204;9.910;2023-03-23T11:41:53;5.20;;;1.63;;
19877;SDS011;10101;52.204;9.910;2023-03-23T11:44:21;6.47;;;1.60;;
19877;SDS011;10101;52.204;9.910;2023-03-23T11:46:53;6.27;;;1.87;;
19877;SDS011;10101;52.204;9.910;2023-03-23T11:49:30;5.57;;;1.50;;
19877;SDS011;10101;52.204;9.910;2023-03-23T11:52:05;3.70;;;1.40;;
19877;SDS011;10101;52.204;9.910;2023-03-23T11:54:43;2.17;;;1.27;;
19877;SDS011;10101;52.204;9.910;2023-03-23T11:57:14;4.43;;;1.23;;
19877;SDS011;10101;52.204;9.910;2023-03-23T11:59:41;2.33;;;1.20;;
19877;SDS011;10101;52.204;9.910;2023-03-23T12:05:14;2.40;;;1.00;;
19877;SDS011;10101;52.204;9.910;2023-03-23T12:08:00;2.47;;;1.30;;
19877;SDS011;10101;52.204;9.910;2023-03-23T12:10:37;4.37;;;1.57;;
19877;SDS011;10101;52.204;9.910;2023-03-23T12:13:15;4.90;;;1.40;;
19877;SDS011;10101;52.204;9.910;2023-03-23T12:15:52;4.03;;;1.83;;
19877;SDS011;10101;52.204;9.910;2023-03-23T12:18:28;5.27;;;1.50;;
19877;SDS011;10101;52.204;9.910;2023-03-23T12:21:01;4.73;;;1.60;;
19877;SDS011;10101;52.204;9.910;2023-03-23T12:23:36;3.27;;;1.23;;
19877;SDS011;10101;52.204;9.910;2023-03-23T12:26:14;7.10;;;1.60;;
19877;SDS011;10101;52.204;9.910;2023-03-23T12:31:53;7.87;;;1.70;;
19877;SDS011;10101;52.204;9.910;2023-03-23T12:34:47;4.87;;;1.47;;
19877;SDS011;10101;52.204;9.910;2023-03-23T12:37:25;4.73;;;1.40;;
19877;SDS011;10101;52.204;9.910;2023-03-23T12:40:06;3.10;;;1.20;;
19877;SDS011;10101;52.204;9.910;2023-03-23T12:43:01;4.87;;;1.30;;
19877;SDS011;10101;52.204;9.910;2023-03-23T12:45:43;1.80;;;0.87;;
19877;SDS011;10101;52.204;9.910;2023-03-23T12:48:22;1.77;;;0.80;;
19877;SDS011;10101;52.204;9.910;2023-03-23T12:51:00;1.23;;;0.63;;
19877;SDS011;10101;52.204;9.910;2023-03-23T12:53:34;1.40;;;0.50;;
19877;SDS011;10101;52.204;9.910;2023-03-23T12:56:10;0.90;;;0.67;;
19877;SDS011;10101;52.204;9.910;2023-03-23T12:58:43;1.17;;;0.70;;
19877;SDS011;10101;52.204;9.910;2023-03-23T13:01:12;0.90;;;0.80;;
19877;SDS011;10101;52.204;9.910;2023-03-23T13:03:47;2.53;;;1.00;;
19877;SDS011;10101;52.204;9.910;2023-03-23T13:06:19;0.90;;;0.60;;
19877;SDS011;10101;52.204;9.910;2023-03-23T13:08:55;1.33;;;0.80;;
19877;SDS011;10101;52.204;9.910;2023-03-23T13:11:28;2.10;;;0.80;;
19877;SDS011;10101;52.204;9.910;2023-03-23T13:14:01;2.00;;;0.60;;
19877;SDS011;10101;52.204;9.910;2023-03-23T13:16:39;0.67;;;0.50;;
19877;SDS011;10101;52.204;9.910;2023-03-23T13:19:13;0.40;;;0.40;;
19877;SDS011;10101;52.204;9.910;2023-03-23T13:21:48;1.80;;;0.60;;
19877;SDS011;10101;52.204;9.910;2023-03-23T13:24:23;1.40;;;0.60;;
19877;SDS011;10101;52.204;9.910;2023-03-23T13:26:52;0.93;;;0.43;;
19877;SDS011;10101;52.204;9.910;2023-03-23T13:29:24;2.97;;;0.53;;
19877;SDS011;10101;52.204;9.910;2023-03-23T13:32:03;0.40;;;0.40;;
19877;SDS011;10101;52.204;9.910;2023-03-23T13:34:32;0.80;;;0.57;;
19877;SDS011;10101;52.204;9.910;2023-03-23T13:36:59;1.80;;;0.50;;
19877;SDS011;10101;52.204;9.910;2023-03-23T13:39:29;1.33;;;0.47;;
19877;SDS011;10101;52.204;9.910;2023-03-23T13:42:00;1.43;;;0.50;;
19877;SDS011;10101;52.204;9.910;2023-03-23T13:44:54;1.40;;;0.50;;
19877;SDS011;10101;52.204;9.910;2023-03-23T13:47:35;1.27;;;0.60;;
19877;SDS011;10101;52.204;9.910;2023-03-23T13:50:10;0.40;;;0.30;;
19877;SDS011;10101;52.204;9.910;2023-03-23T13:52:46;1.37;;;0.40;;
19877;SDS011;10101;52.204;9.910;2023-03-23T13:55:19;1.67;;;0.70;;
19877;SDS011;10101;52.204;9.910;2023-03-23T13:57:57;0.67;;;0.50;;
19877;SDS011;10101;52.204;9.910;2023-03-23T14:00:44;0.50;;;0.40;;
19877;SDS011;10101;52.204;9.910;2023-03-23T14:03:14;1.57;;;0.50;;
19877;SDS011;10101;52.204;9.910;2023-03-23T14:05:44;1.23;;;0.40;;
19877;SDS011;10101;52.204;9.910;2023-03-23T14:08:19;1.70;;;0.50;;
19877;SDS011;10101;52.204;9.910;2023-03-23T14:10:50;1.70;;;0.50;;
19877;SDS011;10101;52.204;9.910;2023-03-23T14:13:21;0.40;;;0.40;;
19877;SDS011;10101;52.204;9.910;2023-03-23T14:15:57;1.13;;;0.47;;
19877;SDS011;10101;52.204;9.910;2023-03-23T14:18:27;0.77;;;0.50;;
19877;SDS011;10101;52.204;9.910;2023-03-23T14:20:57;1.93;;;0.70;;
19877;SDS011;10101;52.204;9.910;2023-03-23T14:23:24;1.57;;;0.67;;
19877;SDS011;10101;52.204;9.910;2023-03-23T14:25:55;1.67;;;0.70;;
19877;SDS011;10101;52.204;9.910;2023-03-23T14:28:30;2.50;;;0.70;;
19877;SDS011;10101;52.204;9.910;2023-03-23T14:30:59;1.27;;;1.00;;
19877;SDS011;10101;52.204;9.910;2023-03-23T14:33:26;1.67;;;1.00;;
19877;SDS011;10101;52.204;9.910;2023-03-23T14:35:53;1.73;;;0.80;;
19877;SDS011;10101;52.204;9.910;2023-03-23T14:38:23;2.30;;;1.00;;
19877;SDS011;10101;52.204;9.910;2023-03-23T14:40:58;3.80;;;1.07;;
19877;SDS011;10101;52.204;9.910;2023-03-23T14:43:27;0.80;;;0.80;;
19877;SDS011;10101;52.204;9.910;2023-03-23T14:45:55;1.67;;;1.10;;
19877;SDS011;10101;52.204;9.910;2023-03-23T14:48:26;3.30;;;1.20;;
19877;SDS011;10101;52.204;9.910;2023-03-23T14:50:55;1.93;;;1.10;;
19877;SDS011;10101;52.204;9.910;2023-03-23T14:53:25;5.13;;;0.90;;
19877;SDS011;10101;52.204;9.910;2023-03-23T14:55:59;1.90;;;0.77;;
19877;SDS011;10101;52.204;9.910;2023-03-23T14:58:27;2.50;;;1.20;;
19877;SDS011;10101;52.204;9.910;2023-03-23T15:00:55;3.13;;;1.10;;
19877;SDS011;10101;52.204;9.910;2023-03-23T15:03:26;1.07;;;0.90;;
19877;SDS011;10101;52.204;9.910;2023-03-23T15:05:56;2.60;;;1.00;;
19877;SDS011;10101;52.204;9.910;2023-03-23T15:08:26;2.03;;;1.03;;
19877;SDS011;10101;52.204;9.910;2023-03-23T15:10:58;4.87;;;1.20;;
19877;SDS011;10101;52.204;9.910;2023-03-23T15:13:30;1.10;;;1.00;;
19877;SDS011;10101;52.204;9.910;2023-03-23T15:16:02;1.70;;;1.10;;
19877;SDS011;10101;52.204;9.910;2023-03-23T15:18:35;3.10;;;1.33;;